Time;durP1;ratioP1;P1;durP2;ratioP2;P2;SDS_P1;SDS_P2;PMS_P1;PMS_P2;Temp;Humidity;BMP_temperature;BMP_pressure;BME280_temperature;BME280_humidity;BME280_pressure;Samples;Min_cycle;Max_cycle;Signal;HPM_P1;HPM_P2
2023/09/24 00:02:10;;;;;;;7.03;3.47;;;;;;;;;;6093737;23;20432;-73
2023/09/24 00:04:37;;;;;;;4.85;2.22;;;;;;;;;;6070006;23;20069;-73
2023/09/24 00:07:03;;;;;;;4.30;2.95;;;;;;;;;;6094871;23;20006;-74
2023/09/24 00:09:29;;;;;;;3.83;3.08;;;;;;;;;;6072725;23;20149;-75
2023/09/24 00:11:57;;;;;;;7.30;2.78;;;;;;;;;;6098745;23;20006;-73
2023/09/24 00:14:23;;;;;;;6.97;3.35;;;;;;;;;;6106025;23;20026;-75
2023/09/24 00:16:53;;;;;;;4.25;2.90;;;;;;;;;;6126046;23;20010;-75
2023/09/24 00:19:19;;;;;;;4.00;2.50;;;;;;;;;;6075981;23;20405;-73
2023/09/24 00:21:46;;;;;;;3.90;2.42;;;;;;;;;;6099117;23;20038;-73
2023/09/24 00:24:17;;;;;;;4.90;3.33;;;;;;;;;;6099392;23;20006;-74
2023/09/24 00:26:42;;;;;;;5.10;2.75;;;;;;;;;;6077543;23;20037;-73
2023/09/24 00:29:10;;;;;;;4.60;2.95;;;;;;;;;;6102706;23;20009;-73
2023/09/24 00:31:36;;;;;;;5.00;2.75;;;;;;;;;;6110336;23;20010;-72
2023/09/24 00:34:02;;;;;;;4.05;2.58;;;;;;;;;;6110839;23;20429;-74
2023/09/24 00:36:28;;;;;;;4.35;2.78;;;;;;;;;;6104853;23;20037;-74
2023/09/24 00:38:54;;;;;;;4.88;2.85;;;;;;;;;;6098888;23;20092;-74
2023/09/24 00:41:19;;;;;;;3.85;2.80;;;;;;;;;;6098799;23;20014;-73
2023/09/24 00:43:45;;;;;;;3.90;2.40;;;;;;;;;;6098371;23;20010;-73
2023/09/24 00:46:11;;;;;;;5.38;2.70;;;;;;;;;;6098247;23;20090;-75
2023/09/24 00:48:43;;;;;;;5.18;3.03;;;;;;;;;;6098300;23;20018;-76
2023/09/24 00:51:19;;;;;;;5.43;3.45;;;;;;;;;;6098428;23;20013;-75
2023/09/24 00:53:47;;;;;;;5.68;2.97;;;;;;;;;;6098415;23;20016;-72
2023/09/24 00:56:16;;;;;;;4.95;2.70;;;;;;;;;;6122966;23;20006;-74
2023/09/24 00:58:50;;;;;;;7.93;3.00;;;;;;;;;;6097779;23;20010;-74
2023/09/24 01:01:24;;;;;;;4.80;2.50;;;;;;;;;;6123729;23;20077;-74
2023/09/24 01:03:51;;;;;;;5.88;2.83;;;;;;;;;;6099827;23;20021;-73
2023/09/24 01:06:17;;;;;;;6.63;3.25;;;;;;;;;;6124341;23;20010;-74
2023/09/24 01:08:43;;;;;;;4.90;2.63;;;;;;;;;;6074164;23;20072;-73
2023/09/24 01:11:09;;;;;;;7.28;3.15;;;;;;;;;;6097657;23;20009;-74
2023/09/24 01:13:41;;;;;;;3.80;2.65;;;;;;;;;;6097931;23;20018;-75
2023/09/24 01:16:07;;;;;;;5.03;2.92;;;;;;;;;;6097425;23;20014;-74
2023/09/24 01:18:37;;;;;;;3.42;2.55;;;;;;;;;;6098450;23;20014;-73
2023/09/24 01:21:15;;;;;;;6.47;2.92;;;;;;;;;;6124400;23;20076;-73
2023/09/24 01:23:42;;;;;;;5.80;3.30;;;;;;;;;;6098957;23;20006;-73
2023/09/24 01:26:10;;;;;;;10.90;3.40;;;;;;;;;;6075050;23;20017;-73
2023/09/24 01:28:37;;;;;;;5.20;3.63;;;;;;;;;;6099183;23;20068;-74
2023/09/24 01:31:04;;;;;;;5.65;2.90;;;;;;;;;;6098803;23;20032;-74
2023/09/24 01:33:31;;;;;;;6.25;3.33;;;;;;;;;;6075098;23;20020;-74
2023/09/24 01:35:57;;;;;;;6.05;3.75;;;;;;;;;;6097949;23;20047;-74
2023/09/24 01:38:23;;;;;;;5.47;3.33;;;;;;;;;;6074467;23;20041;-76
2023/09/24 01:40:49;;;;;;;6.18;3.10;;;;;;;;;;6098960;23;20009;-73
2023/09/24 01:43:15;;;;;;;7.47;3.80;;;;;;;;;;6125097;23;20050;-75
2023/09/24 01:45:42;;;;;;;4.10;3.40;;;;;;;;;;6099260;23;20631;-75
2023/09/24 01:48:08;;;;;;;6.03;3.55;;;;;;;;;;6097931;23;20010;-74
2023/09/24 01:50:36;;;;;;;4.30;3.15;;;;;;;;;;6098738;23;20013;-74
2023/09/24 01:53:08;;;;;;;6.90;3.17;;;;;;;;;;6098780;23;20065;-73
2023/09/24 01:55:36;;;;;;;9.85;3.30;;;;;;;;;;6123019;23;20367;-74
2023/09/24 01:58:03;;;;;;;4.85;2.92;;;;;;;;;;6123894;23;20010;-73
2023/09/24 02:00:29;;;;;;;3.88;2.67;;;;;;;;;;6099505;23;20016;-76
2023/09/24 02:03:01;;;;;;;4.95;3.13;;;;;;;;;;6079479;23;20041;-75
2023/09/24 02:05:33;;;;;;;4.32;3.00;;;;;;;;;;6103728;23;20075;-74
2023/09/24 02:08:00;;;;;;;5.63;2.78;;;;;;;;;;6103685;23;20032;-76
2023/09/24 02:10:27;;;;;;;5.68;3.22;;;;;;;;;;6127401;23;20006;-77
2023/09/24 02:12:55;;;;;;;9.13;3.10;;;;;;;;;;6102493;23;20002;-75
2023/09/24 02:15:23;;;;;;;5.05;3.00;;;;;;;;;;6097036;23;20022;-76
2023/09/24 02:17:50;;;;;;;3.47;2.72;;;;;;;;;;6099175;23;20010;-75
2023/09/24 02:20:24;;;;;;;4.95;2.50;;;;;;;;;;6098987;23;20007;-75
2023/09/24 02:22:52;;;;;;;7.38;2.78;;;;;;;;;;6098146;23;20006;-77
2023/09/24 02:25:19;;;;;;;5.60;2.92;;;;;;;;;;6074896;23;20006;-76
2023/09/24 02:27:50;;;;;;;6.18;3.13;;;;;;;;;;6100189;23;20006;-76
2023/09/24 02:30:17;;;;;;;8.07;2.85;;;;;;;;;;6080156;23;20069;-75
2023/09/24 02:32:44;;;;;;;5.97;2.70;;;;;;;;;;6106956;23;20007;-74
2023/09/24 02:35:13;;;;;;;4.93;2.78;;;;;;;;;;6110228;23;20034;-75
2023/09/24 02:37:45;;;;;;;6.90;2.72;;;;;;;;;;6106571;23;20046;-75
2023/09/24 02:40:21;;;;;;;6.40;2.88;;;;;;;;;;6102283;23;20010;-75
2023/09/24 02:42:48;;;;;;;4.38;2.60;;;;;;;;;;6101571;23;20435;-74
2023/09/24 02:45:17;;;;;;;6.35;2.80;;;;;;;;;;6101387;23;20065;-75
2023/09/24 02:47:50;;;;;;;4.85;2.67;;;;;;;;;;6100083;23;20561;-77
2023/09/24 02:50:22;;;;;;;6.70;2.63;;;;;;;;;;6099419;23;20006;-75
2023/09/24 02:52:49;;;;;;;3.72;2.15;;;;;;;;;;6099371;23;20142;-76
2023/09/24 02:55:15;;;;;;;6.85;2.85;;;;;;;;;;6099550;23;20010;-76
2023/09/24 02:57:44;;;;;;;3.83;2.60;;;;;;;;;;6099694;23;20030;-75
2023/09/24 03:00:18;;;;;;;5.10;2.90;;;;;;;;;;6100347;23;20022;-73
2023/09/24 03:02:48;;;;;;;5.82;2.53;;;;;;;;;;6075825;23;20045;-76
2023/09/24 03:05:20;;;;;;;8.68;2.40;;;;;;;;;;6098797;23;20032;-76
2023/09/24 03:07:45;;;;;;;;;;;;;;;;;;6100524;23;20014;-77
2023/09/24 03:10:13;;;;;;;3.70;2.53;;;;;;;;;;6100689;23;19984;-76
2023/09/24 03:12:42;;;;;;;3.72;2.40;;;;;;;;;;6100366;23;20446;-76
2023/09/24 03:15:11;;;;;;;6.10;3.53;;;;;;;;;;6080074;23;20037;-75
2023/09/24 03:17:43;;;;;;;4.68;2.08;;;;;;;;;;6069384;23;20006;-76
2023/09/24 03:20:16;;;;;;;3.45;2.20;;;;;;;;;;6045368;23;20019;-75
2023/09/24 03:23:02;;;;;;;3.28;2.35;;;;;;;;;;6072121;23;20305;-77
2023/09/24 03:25:28;;;;;;;2.63;2.03;;;;;;;;;;6069189;23;20320;-77
2023/09/24 03:27:57;;;;;;;3.83;2.40;;;;;;;;;;6069172;23;20007;-76
2023/09/24 03:30:23;;;;;;;3.10;2.38;;;;;;;;;;6045454;23;20010;-76
2023/09/24 03:32:53;;;;;;;4.43;2.83;;;;;;;;;;6071863;23;20006;-75
2023/09/24 03:35:23;;;;;;;5.18;3.25;;;;;;;;;;6071475;23;20010;-77
2023/09/24 03:37:48;;;;;;;6.70;2.65;;;;;;;;;;6068869;23;20046;-77
2023/09/24 03:40:16;;;;;;;6.72;2.97;;;;;;;;;;6068608;23;20002;-77
2023/09/24 03:42:42;;;;;;;4.68;2.92;;;;;;;;;;6067354;23;20007;-78
2023/09/24 03:45:10;;;;;;;4.43;2.45;;;;;;;;;;6041815;23;20025;-75
2023/09/24 03:47:37;;;;;;;4.18;2.65;;;;;;;;;;6064771;23;20070;-74
2023/09/24 03:50:13;;;;;;;9.35;3.25;;;;;;;;;;6066098;23;20720;-74
2023/09/24 03:52:46;;;;;;;4.15;2.60;;;;;;;;;;6065289;23;20011;-73
2023/09/24 03:55:11;;;;;;;8.00;2.88;;;;;;;;;;6064816;23;20031;-72
2023/09/24 03:57:39;;;;;;;5.13;2.60;;;;;;;;;;6066641;23;20448;-74
2023/09/24 04:00:16;;;;;;;5.32;2.92;;;;;;;;;;6065210;23;20007;-72
2023/09/24 04:02:47;;;;;;;8.43;3.05;;;;;;;;;;6043740;23;20133;-75
2023/09/24 04:05:21;;;;;;;6.28;2.78;;;;;;;;;;6067003;23;20137;-74
2023/09/24 04:07:54;;;;;;;4.82;3.03;;;;;;;;;;6065941;23;20062;-73
2023/09/24 04:10:21;;;;;;;4.43;2.72;;;;;;;;;;6067734;23;20395;-74
2023/09/24 04:12:52;;;;;;;4.80;3.03;;;;;;;;;;6067001;23;20034;-74
2023/09/24 04:15:30;;;;;;;3.37;2.57;;;;;;;;;;6082638;23;20055;-73
2023/09/24 04:17:57;;;;;;;5.20;2.70;;;;;;;;;;6091042;23;20017;-74
2023/09/24 04:20:23;;;;;;;3.83;2.60;;;;;;;;;;6090409;23;20029;-73
2023/09/24 04:22:51;;;;;;;4.65;3.28;;;;;;;;;;6090744;23;20070;-75
2023/09/24 04:25:21;;;;;;;8.77;2.97;;;;;;;;;;6068230;23;19998;-74
2023/09/24 04:27:47;;;;;;;5.65;2.92;;;;;;;;;;6067740;23;20452;-75
2023/09/24 04:30:19;;;;;;;4.82;2.50;;;;;;;;;;6069517;23;20014;-73
2023/09/24 04:32:51;;;;;;;6.55;3.03;;;;;;;;;;6068647;23;20007;-73
2023/09/24 04:35:19;;;;;;;;;;;;;;;;;;6072576;23;20508;-74
2023/09/24 04:37:50;;;;;;;5.75;3.17;;;;;;;;;;6074910;23;19906;-73
2023/09/24 04:40:16;;;;;;;4.60;2.55;;;;;;;;;;6073927;23;20098;-74
2023/09/24 04:42:45;;;;;;;4.95;3.00;;;;;;;;;;6092790;23;20007;-74
2023/09/24 04:45:12;;;;;;;5.22;2.70;;;;;;;;;;6065998;23;20015;-74
2023/09/24 04:47:39;;;;;;;5.38;3.03;;;;;;;;;;6091620;23;20014;-74
2023/09/24 04:50:07;;;;;;;6.07;3.10;;;;;;;;;;6066957;23;20011;-73
2023/09/24 04:52:33;;;;;;;4.80;3.20;;;;;;;;;;6067760;23;20015;-73
2023/09/24 04:54:59;;;;;;;5.78;2.70;;;;;;;;;;6069621;23;20002;-73
2023/09/24 04:57:25;;;;;;;5.75;3.15;;;;;;;;;;6068143;23;20034;-72
2023/09/24 04:59:53;;;;;;;2.92;2.53;;;;;;;;;;6089026;23;20463;-75
2023/09/24 05:02:21;;;;;;;3.85;2.80;;;;;;;;;;6066467;23;20095;-75
2023/09/24 05:04:50;;;;;;;7.72;3.08;;;;;;;;;;6089433;23;20008;-73
2023/09/24 05:07:17;;;;;;;6.50;3.50;;;;;;;;;;6088735;23;20338;-75
2023/09/24 05:09:45;;;;;;;3.58;2.83;;;;;;;;;;6064398;23;20026;-74
2023/09/24 05:12:12;;;;;;;4.95;3.10;;;;;;;;;;6063815;23;20093;-77
2023/09/24 05:14:40;;;;;;;5.95;3.55;;;;;;;;;;6084892;23;20769;-73
2023/09/24 05:17:06;;;;;;;5.35;3.63;;;;;;;;;;6063949;23;20022;-74
2023/09/24 05:19:33;;;;;;;4.72;3.40;;;;;;;;;;6063994;23;20018;-73
2023/09/24 05:21:59;;;;;;;3.83;2.70;;;;;;;;;;6065916;23;20428;-72
2023/09/24 05:24:27;;;;;;;6.15;2.90;;;;;;;;;;6063738;23;20017;-73
2023/09/24 05:26:52;;;;;;;6.47;3.33;;;;;;;;;;6063466;23;20034;-74
2023/09/24 05:29:18;;;;;;;6.65;3.17;;;;;;;;;;6087346;23;20421;-72
2023/09/24 05:31:45;;;;;;;6.85;4.03;;;;;;;;;;6066395;23;20011;-74
2023/09/24 05:34:11;;;;;;;9.93;4.38;;;;;;;;;;6064676;23;20042;-73
2023/09/24 05:36:37;;;;;;;8.77;3.63;;;;;;;;;;6064587;23;20014;-73
2023/09/24 05:39:03;;;;;;;8.40;4.40;;;;;;;;;;6067377;23;20066;-73
2023/09/24 05:41:30;;;;;;;11.35;4.10;;;;;;;;;;6089317;23;20002;-74
2023/09/24 05:44:01;;;;;;;12.52;4.10;;;;;;;;;;6088863;23;20014;-74
2023/09/24 05:46:27;;;;;;;9.48;4.03;;;;;;;;;;6063642;23;20429;-74
2023/09/24 05:48:55;;;;;;;10.65;3.75;;;;;;;;;;6039407;23;20019;-74
2023/09/24 05:51:21;;;;;;;8.73;3.63;;;;;;;;;;6063323;23;20409;-74
2023/09/24 05:53:47;;;;;;;9.50;4.38;;;;;;;;;;6063359;23;20344;-73
2023/09/24 05:56:13;;;;;;;7.85;3.67;;;;;;;;;;6063688;23;20018;-73
2023/09/24 05:58:40;;;;;;;9.13;4.60;;;;;;;;;;6063486;23;20511;-74
2023/09/24 06:01:05;;;;;;;8.05;3.70;;;;;;;;;;6063496;23;20328;-72
2023/09/24 06:03:34;;;;;;;8.10;3.40;;;;;;;;;;6065500;23;20007;-73
2023/09/24 06:06:00;;;;;;;12.95;5.68;;;;;;;;;;6065387;23;20003;-74
2023/09/24 06:08:25;;;;;;;10.57;5.05;;;;;;;;;;6087417;23;20010;-74
2023/09/24 06:10:52;;;;;;;13.10;4.82;;;;;;;;;;6087522;23;20591;-74
2023/09/24 06:13:17;;;;;;;8.73;4.70;;;;;;;;;;6065216;23;20029;-72
2023/09/24 06:15:43;;;;;;;12.10;4.60;;;;;;;;;;6085140;23;20496;-75
2023/09/24 06:18:12;;;;;;;13.27;5.40;;;;;;;;;;6092127;23;20033;-75
2023/09/24 06:20:43;;;;;;;5.20;3.13;;;;;;;;;;6092678;23;20038;-74
2023/09/24 06:23:10;;;;;;;7.65;3.38;;;;;;;;;;6068592;23;20025;-73
2023/09/24 06:25:36;;;;;;;6.75;3.58;;;;;;;;;;6092104;23;20021;-75
2023/09/24 06:28:04;;;;;;;5.25;2.42;;;;;;;;;;6093365;23;20057;-73
2023/09/24 06:30:31;;;;;;;7.82;3.17;;;;;;;;;;6068301;23;20094;-74
2023/09/24 06:32:57;;;;;;;4.88;3.10;;;;;;;;;;6092206;23;20003;-74
2023/09/24 06:35:24;;;;;;;4.43;2.80;;;;;;;;;;6091956;23;20097;-74
2023/09/24 06:37:50;;;;;;;9.48;3.63;;;;;;;;;;6092297;23;20053;-73
2023/09/24 06:40:16;;;;;;;8.70;4.10;;;;;;;;;;6094225;23;20304;-74
2023/09/24 06:42:42;;;;;;;5.43;3.25;;;;;;;;;;6093826;23;20006;-74
2023/09/24 06:45:08;;;;;;;8.32;3.72;;;;;;;;;;6092446;23;20006;-73
2023/09/24 06:47:36;;;;;;;11.68;4.28;;;;;;;;;;6093881;23;20011;-74
2023/09/24 06:50:02;;;;;;;12.45;3.67;;;;;;;;;;6092502;23;20495;-75
2023/09/24 06:52:31;;;;;;;11.10;4.50;;;;;;;;;;6092822;23;20014;-73
2023/09/24 06:54:57;;;;;;;11.02;4.22;;;;;;;;;;6093163;23;20416;-75
2023/09/24 06:57:22;;;;;;;10.98;4.43;;;;;;;;;;6094266;23;20002;-74
2023/09/24 06:59:48;;;;;;;12.50;6.00;;;;;;;;;;6092342;23;20010;-74
2023/09/24 07:02:15;;;;;;;18.25;5.32;;;;;;;;;;6092012;23;20013;-73
2023/09/24 07:04:50;;;;;;;18.35;5.22;;;;;;;;;;6073977;23;20018;-74
2023/09/24 07:07:29;;;;;;;10.02;4.65;;;;;;;;;;6095271;23;20010;-73
2023/09/24 07:10:26;;;;;;;12.57;4.82;;;;;;;;;;6097366;23;20042;-73
2023/09/24 07:13:18;;;;;;;8.70;4.35;;;;;;;;;;6095411;23;20007;-74
2023/09/24 07:18:49;;;;;;;6.80;3.60;;;;;;;;;;6121167;23;20006;-74
2023/09/24 07:21:30;;;;;;;6.18;2.92;;;;;;;;;;6122936;23;20487;-73
2023/09/24 07:24:43;;;;;;;4.20;2.55;;;;;;;;;;6107174;23;20006;-74
2023/09/24 07:27:48;;;;;;;10.25;3.55;;;;;;;;;;6101327;23;20088;-75
2023/09/24 07:30:26;;;;;;;5.40;2.88;;;;;;;;;;6116663;23;20016;-73
2023/09/24 07:33:26;;;;;;;4.03;2.53;;;;;;;;;;6101459;23;20032;-75
2023/09/24 07:36:47;;;;;;;;;;;;;;;;;;;;;
2023/09/24 07:39:49;;;;;;;14.98;5.05;;;;;;;;;;6023470;23;20089;-73
2023/09/24 07:43:49;;;;;;;;;;;;;;;;;;;;;
2023/09/24 07:49:41;;;;;;;5.18;2.80;;;;;;;;;;6038992;23;20090;-73
2023/09/24 07:52:12;;;;;;;5.57;3.08;;;;;;;;;;6079484;23;20452;-74
2023/09/24 07:55:08;;;;;;;5.65;4.63;;;;;;;;;;6124466;23;20105;-73
2023/09/24 08:01:36;;;;;;;3.65;2.65;;;;;;;;;;6113727;23;20009;-73
2023/09/24 08:04:36;;;;;;;6.72;3.50;;;;;;;;;;6067857;23;20001;-73
2023/09/24 08:11:33;;;;;;;6.82;2.72;;;;;;;;;;6070603;23;20038;-74
2023/09/24 08:14:26;;;;;;;6.65;2.55;;;;;;;;;;6006567;23;20020;-75
2023/09/24 08:23:57;;;;;;;3.17;2.10;;;;;;;;;;5873405;23;20018;-74
2023/09/24 08:29:52;;;;;;;5.20;2.20;;;;;;;;;;5997416;23;20011;-74
2023/09/24 08:32:25;;;;;;;4.63;2.05;;;;;;;;;;6113249;23;20076;-73
2023/09/24 08:34:57;;;;;;;5.82;2.90;;;;;;;;;;6077457;23;20010;-74
2023/09/24 08:37:26;;;;;;;5.60;2.15;;;;;;;;;;6102303;23;20045;-74
2023/09/24 08:39:53;;;;;;;5.63;1.95;;;;;;;;;;6104159;23;20348;-74
2023/09/24 08:42:23;;;;;;;5.40;1.98;;;;;;;;;;6106848;23;20037;-73
2023/09/24 08:45:23;;;;;;;3.58;2.03;;;;;;;;;;6101793;23;20013;-74
2023/09/24 08:48:07;;;;;;;6.80;2.55;;;;;;;;;;6099783;23;20014;-74
2023/09/24 08:50:42;;;;;;;5.22;2.50;;;;;;;;;;6125369;23;20014;-74
2023/09/24 08:53:18;;;;;;;4.03;2.28;;;;;;;;;;6076300;23;20041;-74
2023/09/24 08:56:01;;;;;;;3.65;1.98;;;;;;;;;;6098992;23;20043;-74
2023/09/24 08:58:33;;;;;;;3.00;1.95;;;;;;;;;;6125469;23;20030;-74
2023/09/24 09:01:00;;;;;;;4.38;1.85;;;;;;;;;;6101090;23;20009;-75
2023/09/24 09:04:03;;;;;;;2.38;1.70;;;;;;;;;;6123131;23;20062;-76
2023/09/24 09:06:31;;;;;;;3.63;2.55;;;;;;;;;;6098977;23;20014;-74
2023/09/24 09:08:58;;;;;;;3.58;1.88;;;;;;;;;;6122273;23;20013;-74
2023/09/24 09:11:59;;;;;;;4.78;2.00;;;;;;;;;;6076285;23;20436;-75
2023/09/24 09:14:35;;;;;;;4.68;1.90;;;;;;;;;;6068958;23;20048;-74
2023/09/24 09:17:03;;;;;;;2.92;1.85;;;;;;;;;;6125966;23;20026;-73
2023/09/24 09:19:55;;;;;;;3.60;1.42;;;;;;;;;;6126013;23;20062;-73
2023/09/24 09:22:27;;;;;;;5.53;2.00;;;;;;;;;;6099571;23;20122;-73
2023/09/24 09:25:11;;;;;;;4.75;2.35;;;;;;;;;;6124308;23;20010;-73
2023/09/24 09:27:41;;;;;;;3.85;1.95;;;;;;;;;;6098797;23;20006;-72
2023/09/24 09:30:30;;;;;;;;;;;;;;;;;;;;;
2023/09/24 09:33:01;;;;;;;3.85;1.80;;;;;;;;;;6117437;23;20070;-75
2023/09/24 09:35:36;;;;;;;5.18;2.10;;;;;;;;;;6122536;23;20215;-74
2023/09/24 09:38:17;;;;;;;2.65;1.95;;;;;;;;;;6097836;23;20005;-74
2023/09/24 09:40:46;;;;;;;5.88;1.90;;;;;;;;;;6097511;23;20002;-75
2023/09/24 09:43:25;;;;;;;4.40;1.50;;;;;;;;;;6098029;23;20010;-73
2023/09/24 09:45:56;;;;;;;1.50;1.33;;;;;;;;;;6112214;23;20017;-74
2023/09/24 09:48:32;;;;;;;3.95;1.73;;;;;;;;;;6123994;23;20060;-74
2023/09/24 09:51:03;;;;;;;5.25;3.33;;;;;;;;;;6098057;23;20348;-74
2023/09/24 09:53:34;;;;;;;3.28;2.20;;;;;;;;;;6098245;23;20056;-75
2023/09/24 09:56:08;;;;;;;4.47;1.80;;;;;;;;;;6099595;23;20009;-72
2023/09/24 09:58:46;;;;;;;4.03;1.63;;;;;;;;;;6123540;23;20056;-73
2023/09/24 10:01:24;;;;;;;3.17;2.17;;;;;;;;;;6098116;23;20061;-72
2023/09/24 10:03:57;;;;;;;6.75;2.22;;;;;;;;;;6097494;23;20010;-74
2023/09/24 10:06:37;;;;;;;3.67;1.80;;;;;;;;;;6097615;23;20010;-74
2023/09/24 10:09:35;;;;;;;3.00;2.05;;;;;;;;;;6096732;23;20020;-74
2023/09/24 10:12:07;;;;;;;2.28;1.90;;;;;;;;;;6097448;23;20006;-74
2023/09/24 10:14:45;;;;;;;3.58;1.92;;;;;;;;;;6120924;23;20339;-74
2023/09/24 10:17:23;;;;;;;2.05;1.85;;;;;;;;;;6097525;23;20046;-73
2023/09/24 10:20:06;;;;;;;1.60;1.50;;;;;;;;;;6121458;23;20045;-73
2023/09/24 10:22:39;;;;;;;3.53;1.70;;;;;;;;;;6097257;23;20006;-74
2023/09/24 10:25:37;;;;;;;2.90;2.00;;;;;;;;;;6098037;23;20041;-73
2023/09/24 10:28:07;;;;;;;2.38;1.80;;;;;;;;;;6097441;23;20002;-75
2023/09/24 10:31:12;;;;;;;2.45;1.52;;;;;;;;;;6073287;23;20010;-73
2023/09/24 10:34:15;;;;;;;4.72;2.05;;;;;;;;;;6120102;23;20281;-73
2023/09/24 10:37:08;;;;;;;8.82;2.30;;;;;;;;;;6123459;23;20010;-74
2023/09/24 10:40:14;;;;;;;5.57;1.95;;;;;;;;;;6096079;23;20006;-76
2023/09/24 10:43:03;;;;;;;4.03;2.38;;;;;;;;;;6097559;23;20340;-73
2023/09/24 10:45:31;;;;;;;7.78;2.72;;;;;;;;;;6122944;23;20489;-75
2023/09/24 10:48:04;;;;;;;5.97;2.42;;;;;;;;;;6074722;23;20109;-75
2023/09/24 10:50:31;;;;;;;3.85;2.30;;;;;;;;;;6098088;23;20020;-74
2023/09/24 10:53:05;;;;;;;2.40;1.88;;;;;;;;;;6098075;23;20010;-75
2023/09/24 10:55:45;;;;;;;3.00;2.13;;;;;;;;;;6098102;23;20355;-74
2023/09/24 10:58:24;;;;;;;4.57;1.88;;;;;;;;;;6117923;23;20009;-73
2023/09/24 11:01:03;;;;;;;3.30;2.50;;;;;;;;;;6100171;23;20013;-74
2023/09/24 11:03:35;;;;;;;3.08;2.33;;;;;;;;;;6126316;23;20006;-74
2023/09/24 11:06:07;;;;;;;6.25;4.10;;;;;;;;;;6101374;23;20085;-76
2023/09/24 11:08:42;;;;;;;7.32;2.40;;;;;;;;;;6076656;23;20010;-74
2023/09/24 11:11:08;;;;;;;3.95;2.00;;;;;;;;;;6076394;23;20483;-74
2023/09/24 11:13:36;;;;;;;2.08;1.50;;;;;;;;;;6100279;23;20081;-74
2023/09/24 11:16:10;;;;;;;2.53;1.60;;;;;;;;;;6125168;23;20041;-73
2023/09/24 11:18:48;;;;;;;7.53;3.95;;;;;;;;;;6124567;23;20052;-74
2023/09/24 11:21:17;;;;;;;3.08;1.35;;;;;;;;;;6100022;23;20028;-73
2023/09/24 11:23:44;;;;;;;5.15;1.63;;;;;;;;;;6100142;23;20010;-74
2023/09/24 11:26:14;;;;;;;2.85;1.70;;;;;;;;;;6099650;23;20024;-73
2023/09/24 11:28:41;;;;;;;5.17;1.70;;;;;;;;;;6069858;23;20009;-74
2023/09/24 11:31:24;;;;;;;2.83;1.80;;;;;;;;;;6099263;23;20252;-72
2023/09/24 11:34:08;;;;;;;4.07;2.25;;;;;;;;;;6099017;23;20022;-73
2023/09/24 11:36:37;;;;;;;3.40;1.70;;;;;;;;;;6099244;23;20006;-73
2023/09/24 11:39:04;;;;;;;4.85;2.20;;;;;;;;;;6098710;23;20009;-74
2023/09/24 11:41:35;;;;;;;4.43;2.50;;;;;;;;;;6099101;23;20016;-74
2023/09/24 11:44:02;;;;;;;6.22;1.80;;;;;;;;;;6099324;23;20054;-75
2023/09/24 11:46:29;;;;;;;5.18;2.65;;;;;;;;;;6099103;23;20088;-74
2023/09/24 11:49:05;;;;;;;5.20;2.35;;;;;;;;;;6098763;23;20041;-73
2023/09/24 11:51:42;;;;;;;2.05;1.92;;;;;;;;;;6124662;23;20013;-74
2023/09/24 11:54:13;;;;;;;2.97;2.00;;;;;;;;;;6098271;23;20006;-74
2023/09/24 11:56:43;;;;;;;4.25;1.60;;;;;;;;;;6124537;23;20006;-76
2023/09/24 11:59:11;;;;;;;3.37;2.20;;;;;;;;;;6097807;23;20363;-73
2023/09/24 12:01:39;;;;;;;4.60;1.77;;;;;;;;;;6100871;23;20256;-73
2023/09/24 12:04:10;;;;;;;3.05;1.77;;;;;;;;;;6076562;23;20013;-74
2023/09/24 12:06:44;;;;;;;3.00;2.30;;;;;;;;;;6098838;23;20006;-74
2023/09/24 12:09:11;;;;;;;3.80;2.90;;;;;;;;;;6098072;23;20010;-75
2023/09/24 12:11:41;;;;;;;4.93;2.97;;;;;;;;;;6098166;23;20029;-73
2023/09/24 12:14:16;;;;;;;3.35;2.45;;;;;;;;;;6098188;23;20037;-74
2023/09/24 12:16:42;;;;;;;4.85;2.80;;;;;;;;;;6074409;23;20106;-74
2023/09/24 12:19:07;;;;;;;2.83;2.55;;;;;;;;;;6123646;23;20057;-74
2023/09/24 12:21:33;;;;;;;6.60;2.53;;;;;;;;;;6097181;23;20113;-74
2023/09/24 12:23:58;;;;;;;7.78;2.50;;;;;;;;;;6097027;23;20005;-74
2023/09/24 12:26:24;;;;;;;3.92;2.17;;;;;;;;;;6123558;23;20386;-73
2023/09/24 12:28:49;;;;;;;5.40;2.90;;;;;;;;;;6097213;23;20091;-73
2023/09/24 12:31:15;;;;;;;4.07;1.95;;;;;;;;;;6096846;23;20407;-74
2023/09/24 12:33:41;;;;;;;3.13;1.85;;;;;;;;;;6096615;23;20093;-75
2023/09/24 12:36:06;;;;;;;3.15;2.05;;;;;;;;;;6097339;23;20013;-74
2023/09/24 12:38:32;;;;;;;3.58;2.40;;;;;;;;;;6097859;23;20010;-75
2023/09/24 12:40:57;;;;;;;3.60;2.00;;;;;;;;;;6122967;23;20080;-74
2023/09/24 12:43:24;;;;;;;4.32;2.30;;;;;;;;;;6097835;23;20305;-75
2023/09/24 12:45:50;;;;;;;2.20;1.67;;;;;;;;;;6097895;23;20010;-75
2023/09/24 12:48:15;;;;;;;2.72;1.52;;;;;;;;;;6099883;23;20025;-74
2023/09/24 12:50:41;;;;;;;2.65;1.40;;;;;;;;;;6101463;23;20013;-74
2023/09/24 12:53:07;;;;;;;1.85;1.25;;;;;;;;;;6104579;23;20002;-73
2023/09/24 12:55:32;;;;;;;2.38;1.40;;;;;;;;;;6081127;23;20014;-73
2023/09/24 12:57:58;;;;;;;1.65;1.40;;;;;;;;;;6125763;23;20371;-74
2023/09/24 13:00:23;;;;;;;1.65;1.50;;;;;;;;;;6097797;23;20057;-75
2023/09/24 13:02:49;;;;;;;2.50;1.60;;;;;;;;;;6096771;23;20014;-74
2023/09/24 13:05:16;;;;;;;3.28;1.40;;;;;;;;;;6097278;23;20092;-74
2023/09/24 13:07:43;;;;;;;3.47;1.30;;;;;;;;;;6097518;23;20001;-75
2023/09/24 13:10:10;;;;;;;5.65;1.40;;;;;;;;;;6123153;23;20010;-76
2023/09/24 13:12:35;;;;;;;3.75;2.13;;;;;;;;;;6096535;23;20601;-74
2023/09/24 13:15:02;;;;;;;5.95;2.95;;;;;;;;;;6096668;23;20068;-76
2023/09/24 13:17:28;;;;;;;5.00;1.73;;;;;;;;;;6097280;23;20104;-75
2023/09/24 13:19:54;;;;;;;2.75;1.35;;;;;;;;;;6096968;23;20037;-75
2023/09/24 13:22:20;;;;;;;1.20;1.10;;;;;;;;;;6124069;23;20005;-75
2023/09/24 13:24:46;;;;;;;2.15;1.40;;;;;;;;;;6124306;23;20029;-75
2023/09/24 13:27:12;;;;;;;2.53;0.85;;;;;;;;;;6097250;23;20426;-75
2023/09/24 13:29:38;;;;;;;5.78;1.80;;;;;;;;;;6096805;23;20013;-75
2023/09/24 13:32:03;;;;;;;8.85;1.65;;;;;;;;;;6096294;23;20016;-74
2023/09/24 13:34:33;;;;;;;2.28;1.27;;;;;;;;;;6121305;23;20016;-75
2023/09/24 13:36:59;;;;;;;7.88;5.20;;;;;;;;;;6122785;23;20414;-75
2023/09/24 13:39:24;;;;;;;1.85;1.10;;;;;;;;;;6122887;23;20053;-75
2023/09/24 13:41:50;;;;;;;1.42;1.02;;;;;;;;;;6122789;23;20026;-74
2023/09/24 13:44:16;;;;;;;1.20;1.08;;;;;;;;;;6096973;23;20006;-75
2023/09/24 13:46:41;;;;;;;2.50;0.98;;;;;;;;;;6096447;23;20010;-74
2023/09/24 13:49:07;;;;;;;0.98;0.80;;;;;;;;;;6096790;23;20081;-74
2023/09/24 13:51:35;;;;;;;2.35;1.40;;;;;;;;;;6096651;23;20093;-73
2023/09/24 13:54:04;;;;;;;1.73;1.60;;;;;;;;;;6096736;23;20033;-76
2023/09/24 13:56:29;;;;;;;2.80;1.17;;;;;;;;;;6096678;23;20516;-76
2023/09/24 13:58:56;;;;;;;3.58;2.38;;;;;;;;;;6096360;23;20010;-75
2023/09/24 14:01:22;;;;;;;2.97;1.60;;;;;;;;;;6096872;23;20013;-75
2023/09/24 14:03:48;;;;;;;1.17;1.08;;;;;;;;;;6096813;23;20029;-75
2023/09/24 14:06:14;;;;;;;1.85;1.17;;;;;;;;;;6123082;23;20067;-76
2023/09/24 14:14:10;;;;;;;7.88;2.25;;;;;;;;;;6122878;23;20069;-76
2023/09/24 14:16:38;;;;;;;4.60;1.45;;;;;;;;;;6092974;23;20031;-75
2023/09/24 14:19:07;;;;;;;1.30;1.20;;;;;;;;;;6093997;23;20045;-76
2023/09/24 14:21:35;;;;;;;1.88;0.90;;;;;;;;;;6094322;23;20007;-75
2023/09/24 14:24:01;;;;;;;2.58;0.90;;;;;;;;;;6093389;23;20006;-74
2023/09/24 14:26:30;;;;;;;4.82;1.00;;;;;;;;;;6093531;23;20013;-74
2023/09/24 14:28:58;;;;;;;4.28;1.00;;;;;;;;;;6092642;23;20007;-74
2023/09/24 14:31:24;;;;;;;5.65;1.20;;;;;;;;;;6092688;23;20048;-74
2023/09/24 14:33:53;;;;;;;4.30;1.52;;;;;;;;;;6095098;23;20108;-75
2023/09/24 14:36:19;;;;;;;3.10;1.92;;;;;;;;;;6094311;23;20101;-75
2023/09/24 14:38:46;;;;;;;3.30;1.30;;;;;;;;;;6096481;23;20096;-75
2023/09/24 14:41:11;;;;;;;3.63;1.08;;;;;;;;;;6094601;23;20006;-76
2023/09/24 14:43:37;;;;;;;2.90;1.35;;;;;;;;;;6094294;23;20006;-76
2023/09/24 14:46:03;;;;;;;6.15;2.72;;;;;;;;;;6095888;23;20029;-78
2023/09/24 14:48:31;;;;;;;3.53;1.48;;;;;;;;;;6093963;23;20404;-76
2023/09/24 14:50:58;;;;;;;2.00;0.90;;;;;;;;;;6093230;23;20662;-74
2023/09/24 14:53:27;;;;;;;2.42;1.15;;;;;;;;;;6093820;23;20408;-76
2023/09/24 14:55:56;;;;;;;2.78;1.50;;;;;;;;;;6069297;23;20010;-76
2023/09/24 14:58:22;;;;;;;1.73;1.02;;;;;;;;;;6093274;23;19999;-77
2023/09/24 15:00:47;;;;;;;5.75;1.80;;;;;;;;;;6069451;23;20021;-76
2023/09/24 15:03:14;;;;;;;8.45;1.88;;;;;;;;;;6093151;23;20309;-77
2023/09/24 15:05:41;;;;;;;2.15;1.27;;;;;;;;;;6069393;23;20088;-77
2023/09/24 15:08:09;;;;;;;1.48;1.02;;;;;;;;;;6069134;23;20021;-76
2023/09/24 15:10:42;;;;;;;1.67;1.13;;;;;;;;;;6095066;23;20439;-76
2023/09/24 15:13:09;;;;;;;1.85;1.27;;;;;;;;;;6069313;23;20020;-76
2023/09/24 15:15:38;;;;;;;2.28;1.40;;;;;;;;;;6057081;23;20109;-77
2023/09/24 15:18:05;;;;;;;2.50;1.23;;;;;;;;;;6067092;23;20003;-78
2023/09/24 15:20:38;;;;;;;1.85;1.30;;;;;;;;;;6066062;23;20568;-76
2023/09/24 15:23:06;;;;;;;3.80;1.20;;;;;;;;;;6065968;23;20010;-76
2023/09/24 15:25:32;;;;;;;1.48;1.20;;;;;;;;;;6066083;23;20055;-75
2023/09/24 15:27:58;;;;;;;3.08;1.48;;;;;;;;;;6064297;23;20093;-77
2023/09/24 15:30:23;;;;;;;2.35;1.30;;;;;;;;;;6066177;23;20002;-76
2023/09/24 15:32:50;;;;;;;5.65;1.60;;;;;;;;;;6064047;23;20015;-76
2023/09/24 15:35:16;;;;;;;5.80;1.48;;;;;;;;;;6064293;23;20014;-78
2023/09/24 15:37:41;;;;;;;2.53;1.50;;;;;;;;;;6063853;23;20661;-77
2023/09/24 15:40:08;;;;;;;1.48;1.20;;;;;;;;;;6063734;23;20006;-77